sensor_id;sensor_type;location;lat;lon;timestamp;temperature;humidity
38582;DHT22;24349;53.720;10.014;2022-07-05T00:00:17;15.00;99.90
38582;DHT22;24349;53.720;10.014;2022-07-05T00:02:43;15.10;99.90
38582;DHT22;24349;53.720;10.014;2022-07-05T00:05:08;15.00;99.90
38582;DHT22;24349;53.720;10.014;2022-07-05T00:07:34;14.90;99.90
38582;DHT22;24349;53.720;10.014;2022-07-05T00:10:00;14.80;99.90
38582;DHT22;24349;53.720;10.014;2022-07-05T00:12:28;14.80;99.90
38582;DHT22;24349;53.720;10.014;2022-07-05T00:14:55;14.80;99.90
38582;DHT22;24349;53.720;10.014;2022-07-05T00:17:22;14.80;99.90
38582;DHT22;24349;53.720;10.014;2022-07-05T00:19:48;14.70;99.90
38582;DHT22;24349;53.720;10.014;2022-07-05T00:22:14;14.70;99.90
38582;DHT22;24349;53.720;10.014;2022-07-05T00:24:40;14.80;99.90
38582;DHT22;24349;53.720;10.014;2022-07-05T00:27:06;14.70;99.90
38582;DHT22;24349;53.720;10.014;2022-07-05T00:29:32;14.60;99.90
38582;DHT22;24349;53.720;10.014;2022-07-05T00:31:58;14.60;99.90
38582;DHT22;24349;53.720;10.014;2022-07-05T00:34:24;14.70;99.90
38582;DHT22;24349;53.720;10.014;2022-07-05T00:36:50;14.60;99.90
38582;DHT22;24349;53.720;10.014;2022-07-05T00:39:15;14.50;99.90
38582;DHT22;24349;53.720;10.014;2022-07-05T00:41:41;14.50;99.90
38582;DHT22;24349;53.720;10.014;2022-07-05T00:44:11;14.50;99.90
38582;DHT22;24349;53.720;10.014;2022-07-05T00:46:38;14.50;99.90
38582;DHT22;24349;53.720;10.014;2022-07-05T00:49:05;14.50;99.90
38582;DHT22;24349;53.720;10.014;2022-07-05T00:51:33;14.40;99.90
38582;DHT22;24349;53.720;10.014;2022-07-05T00:54:00;14.40;99.90
38582;DHT22;24349;53.720;10.014;2022-07-05T00:56:26;14.30;99.90
38582;DHT22;24349;53.720;10.014;2022-07-05T00:58:52;14.30;99.90
38582;DHT22;24349;53.720;10.014;2022-07-05T01:01:19;14.40;99.90
38582;DHT22;24349;53.720;10.014;2022-07-05T01:03:45;14.30;99.90
38582;DHT22;24349;53.720;10.014;2022-07-05T01:06:12;14.40;99.90
38582;DHT22;24349;53.720;10.014;2022-07-05T01:08:41;14.30;99.90
38582;DHT22;24349;53.720;10.014;2022-07-05T01:11:08;14.20;99.90
38582;DHT22;24349;53.720;10.014;2022-07-05T01:13:35;14.20;99.90
38582;DHT22;24349;53.720;10.014;2022-07-05T01:16:01;14.10;99.90
38582;DHT22;24349;53.720;10.014;2022-07-05T01:18:28;14.10;99.90
38582;DHT22;24349;53.720;10.014;2022-07-05T01:20:54;14.10;99.90
38582;DHT22;24349;53.720;10.014;2022-07-05T01:23:20;14.10;99.90
38582;DHT22;24349;53.720;10.014;2022-07-05T01:25:47;14.00;99.90
38582;DHT22;24349;53.720;10.014;2022-07-05T01:28:13;14.10;99.90
38582;DHT22;24349;53.720;10.014;2022-07-05T01:30:40;14.10;99.90
38582;DHT22;24349;53.720;10.014;2022-07-05T01:33:06;14.10;99.90
38582;DHT22;24349;53.720;10.014;2022-07-05T01:35:33;14.10;99.90
38582;DHT22;24349;53.720;10.014;2022-07-05T01:37:59;14.10;99.90
38582;DHT22;24349;53.720;10.014;2022-07-05T01:40:24;14.00;99.90
38582;DHT22;24349;53.720;10.014;2022-07-05T01:42:50;14.00;99.90
38582;DHT22;24349;53.720;10.014;2022-07-05T01:45:17;14.00;99.90
38582;DHT22;24349;53.720;10.014;2022-07-05T01:48:06;14.00;99.90
38582;DHT22;24349;53.720;10.014;2022-07-05T01:50:36;14.10;99.90
38582;DHT22;24349;53.720;10.014;2022-07-05T01:53:03;14.10;99.90
38582;DHT22;24349;53.720;10.014;2022-07-05T01:55:30;14.10;99.90
38582;DHT22;24349;53.720;10.014;2022-07-05T01:57:56;14.00;99.90
38582;DHT22;24349;53.720;10.014;2022-07-05T02:00:22;14.00;99.90
38582;DHT22;24349;53.720;10.014;2022-07-05T02:02:49;13.90;99.90
38582;DHT22;24349;53.720;10.014;2022-07-05T02:05:15;13.90;99.90
38582;DHT22;24349;53.720;10.014;2022-07-05T02:07:47;13.90;99.90
38582;DHT22;24349;53.720;10.014;2022-07-05T02:10:13;13.90;99.90
38582;DHT22;24349;53.720;10.014;2022-07-05T02:12:39;13.80;99.90
38582;DHT22;24349;53.720;10.014;2022-07-05T02:15:05;13.80;99.90
38582;DHT22;24349;53.720;10.014;2022-07-05T02:17:31;13.80;99.90
38582;DHT22;24349;53.720;10.014;2022-07-05T02:19:57;13.70;99.90
38582;DHT22;24349;53.720;10.014;2022-07-05T02:22:23;13.70;99.90
38582;DHT22;24349;53.720;10.014;2022-07-05T02:24:49;13.70;99.90
38582;DHT22;24349;53.720;10.014;2022-07-05T02:27:15;13.70;99.90
38582;DHT22;24349;53.720;10.014;2022-07-05T02:29:41;13.60;99.90
38582;DHT22;24349;53.720;10.014;2022-07-05T02:32:07;13.60;99.90
38582;DHT22;24349;53.720;10.014;2022-07-05T02:34:32;13.50;99.90
38582;DHT22;24349;53.720;10.014;2022-07-05T02:36:58;13.60;99.90
38582;DHT22;24349;53.720;10.014;2022-07-05T02:39:24;13.50;99.90
38582;DHT22;24349;53.720;10.014;2022-07-05T02:41:49;13.50;99.90
38582;DHT22;24349;53.720;10.014;2022-07-05T02:44:15;13.40;99.90
38582;DHT22;24349;53.720;10.014;2022-07-05T02:46:41;13.30;99.90
38582;DHT22;24349;53.720;10.014;2022-07-05T02:49:06;13.30;99.90
38582;DHT22;24349;53.720;10.014;2022-07-05T02:51:32;13.20;99.90
38582;DHT22;24349;53.720;10.014;2022-07-05T02:53:58;13.20;99.90
38582;DHT22;24349;53.720;10.014;2022-07-05T02:56:23;13.20;99.90
38582;DHT22;24349;53.720;10.014;2022-07-05T02:58:49;13.20;99.90
38582;DHT22;24349;53.720;10.014;2022-07-05T03:01:14;13.30;99.90
38582;DHT22;24349;53.720;10.014;2022-07-05T03:03:40;13.20;99.90
38582;DHT22;24349;53.720;10.014;2022-07-05T03:06:06;13.20;99.90
38582;DHT22;24349;53.720;10.014;2022-07-05T03:08:31;13.20;99.90
38582;DHT22;24349;53.720;10.014;2022-07-05T03:10:57;13.20;99.90
38582;DHT22;24349;53.720;10.014;2022-07-05T03:13:23;13.20;99.90
38582;DHT22;24349;53.720;10.014;2022-07-05T03:15:49;13.20;99.90
38582;DHT22;24349;53.720;10.014;2022-07-05T03:18:14;13.20;99.90
38582;DHT22;24349;53.720;10.014;2022-07-05T03:20:40;13.30;99.90
38582;DHT22;24349;53.720;10.014;2022-07-05T03:23:06;13.30;99.90
38582;DHT22;24349;53.720;10.014;2022-07-05T03:25:32;13.30;99.90
38582;DHT22;24349;53.720;10.014;2022-07-05T03:27:58;13.30;99.90
38582;DHT22;24349;53.720;10.014;2022-07-05T03:30:24;13.40;99.90
38582;DHT22;24349;53.720;10.014;2022-07-05T03:32:49;13.50;99.90
38582;DHT22;24349;53.720;10.014;2022-07-05T03:35:16;13.30;99.90
38582;DHT22;24349;53.720;10.014;2022-07-05T03:37:41;13.30;99.90
38582;DHT22;24349;53.720;10.014;2022-07-05T03:40:08;13.30;99.90
38582;DHT22;24349;53.720;10.014;2022-07-05T03:42:33;13.40;99.90
38582;DHT22;24349;53.720;10.014;2022-07-05T03:45:01;13.30;99.90
38582;DHT22;24349;53.720;10.014;2022-07-05T03:47:26;13.30;99.90
38582;DHT22;24349;53.720;10.014;2022-07-05T03:49:53;13.30;99.90
38582;DHT22;24349;53.720;10.014;2022-07-05T03:52:19;13.30;99.90
38582;DHT22;24349;53.720;10.014;2022-07-05T03:54:45;13.30;99.90
38582;DHT22;24349;53.720;10.014;2022-07-05T03:57:11;13.30;99.90
38582;DHT22;24349;53.720;10.014;2022-07-05T03:59:37;13.20;99.90
38582;DHT22;24349;53.720;10.014;2022-07-05T04:02:03;13.20;99.90
38582;DHT22;24349;53.720;10.014;2022-07-05T04:04:30;13.10;99.90
38582;DHT22;24349;53.720;10.014;2022-07-05T04:06:55;13.20;99.90
38582;DHT22;24349;53.720;10.014;2022-07-05T04:09:21;13.20;99.90
38582;DHT22;24349;53.720;10.014;2022-07-05T04:11:47;13.30;99.90
38582;DHT22;24349;53.720;10.014;2022-07-05T04:14:13;13.40;99.90
38582;DHT22;24349;53.720;10.014;2022-07-05T04:16:39;13.40;99.90
38582;DHT22;24349;53.720;10.014;2022-07-05T04:19:05;13.40;99.90
38582;DHT22;24349;53.720;10.014;2022-07-05T04:21:30;13.40;99.90
38582;DHT22;24349;53.720;10.014;2022-07-05T04:23:56;13.40;99.90
38582;DHT22;24349;53.720;10.014;2022-07-05T04:26:22;13.50;99.90
38582;DHT22;24349;53.720;10.014;2022-07-05T04:28:48;13.50;99.90
38582;DHT22;24349;53.720;10.014;2022-07-05T04:31:13;13.60;99.90
38582;DHT22;24349;53.720;10.014;2022-07-05T04:33:39;13.70;99.90
38582;DHT22;24349;53.720;10.014;2022-07-05T04:36:05;13.80;99.90
38582;DHT22;24349;53.720;10.014;2022-07-05T04:38:31;13.90;99.90
38582;DHT22;24349;53.720;10.014;2022-07-05T04:40:57;13.90;99.90
38582;DHT22;24349;53.720;10.014;2022-07-05T04:43:23;14.00;99.90
38582;DHT22;24349;53.720;10.014;2022-07-05T04:45:48;14.00;99.90
38582;DHT22;24349;53.720;10.014;2022-07-05T04:48:14;14.10;99.90
38582;DHT22;24349;53.720;10.014;2022-07-05T04:50:40;14.10;99.90
38582;DHT22;24349;53.720;10.014;2022-07-05T04:53:06;14.00;99.90
38582;DHT22;24349;53.720;10.014;2022-07-05T04:55:31;14.00;99.90
38582;DHT22;24349;53.720;10.014;2022-07-05T04:57:58;14.10;99.90
38582;DHT22;24349;53.720;10.014;2022-07-05T05:00:24;14.20;99.90
38582;DHT22;24349;53.720;10.014;2022-07-05T05:02:49;14.20;99.90
38582;DHT22;24349;53.720;10.014;2022-07-05T05:05:15;14.30;99.90
38582;DHT22;24349;53.720;10.014;2022-07-05T05:07:44;14.50;99.90
38582;DHT22;24349;53.720;10.014;2022-07-05T05:10:11;14.60;99.90
38582;DHT22;24349;53.720;10.014;2022-07-05T05:12:37;14.50;99.90
38582;DHT22;24349;53.720;10.014;2022-07-05T05:15:03;14.70;99.90
38582;DHT22;24349;53.720;10.014;2022-07-05T05:17:40;14.70;99.90
38582;DHT22;24349;53.720;10.014;2022-07-05T05:20:14;14.70;99.90
38582;DHT22;24349;53.720;10.014;2022-07-05T05:22:40;14.80;99.90
38582;DHT22;24349;53.720;10.014;2022-07-05T05:25:07;14.80;99.90
38582;DHT22;24349;53.720;10.014;2022-07-05T05:27:32;15.00;99.90
38582;DHT22;24349;53.720;10.014;2022-07-05T05:29:58;15.10;99.90
38582;DHT22;24349;53.720;10.014;2022-07-05T05:32:24;15.20;99.90
38582;DHT22;24349;53.720;10.014;2022-07-05T05:34:50;15.20;99.90
38582;DHT22;24349;53.720;10.014;2022-07-05T05:37:16;15.10;99.90
38582;DHT22;24349;53.720;10.014;2022-07-05T05:39:41;15.20;99.90
38582;DHT22;24349;53.720;10.014;2022-07-05T05:42:07;15.40;99.90
38582;DHT22;24349;53.720;10.014;2022-07-05T05:44:34;15.40;99.90
38582;DHT22;24349;53.720;10.014;2022-07-05T05:47:00;15.30;99.90
38582;DHT22;24349;53.720;10.014;2022-07-05T05:49:25;15.30;99.90
38582;DHT22;24349;53.720;10.014;2022-07-05T05:51:51;15.30;99.90
38582;DHT22;24349;53.720;10.014;2022-07-05T05:54:17;15.30;99.90
38582;DHT22;24349;53.720;10.014;2022-07-05T05:56:42;15.30;99.90
38582;DHT22;24349;53.720;10.014;2022-07-05T05:59:08;15.30;99.90
38582;DHT22;24349;53.720;10.014;2022-07-05T06:01:34;15.40;99.90
38582;DHT22;24349;53.720;10.014;2022-07-05T06:04:00;15.60;99.90
38582;DHT22;24349;53.720;10.014;2022-07-05T06:06:25;15.80;99.90
38582;DHT22;24349;53.720;10.014;2022-07-05T06:08:51;16.00;99.90
38582;DHT22;24349;53.720;10.014;2022-07-05T06:11:16;16.10;99.90
38582;DHT22;24349;53.720;10.014;2022-07-05T06:13:42;16.20;99.90
38582;DHT22;24349;53.720;10.014;2022-07-05T06:16:08;16.50;99.90
38582;DHT22;24349;53.720;10.014;2022-07-05T06:18:35;16.70;99.90
38582;DHT22;24349;53.720;10.014;2022-07-05T06:21:00;16.70;99.90
38582;DHT22;24349;53.720;10.014;2022-07-05T06:23:26;16.50;99.90
38582;DHT22;24349;53.720;10.014;2022-07-05T06:25:52;16.50;99.90
38582;DHT22;24349;53.720;10.014;2022-07-05T06:28:17;16.50;99.90
38582;DHT22;24349;53.720;10.014;2022-07-05T06:30:43;16.50;99.90
38582;DHT22;24349;53.720;10.014;2022-07-05T06:33:09;16.60;99.90
38582;DHT22;24349;53.720;10.014;2022-07-05T06:35:35;16.60;99.90
38582;DHT22;24349;53.720;10.014;2022-07-05T06:38:04;16.50;99.90
38582;DHT22;24349;53.720;10.014;2022-07-05T06:40:38;16.30;99.90
38582;DHT22;24349;53.720;10.014;2022-07-05T06:43:09;16.50;99.90
38582;DHT22;24349;53.720;10.014;2022-07-05T06:45:35;16.50;99.90
38582;DHT22;24349;53.720;10.014;2022-07-05T06:48:09;16.60;99.90
38582;DHT22;24349;53.720;10.014;2022-07-05T06:50:37;16.60;99.90
38582;DHT22;24349;53.720;10.014;2022-07-05T06:53:04;16.70;99.90
38582;DHT22;24349;53.720;10.014;2022-07-05T06:55:29;16.70;99.90
38582;DHT22;24349;53.720;10.014;2022-07-05T06:58:04;16.70;99.90
38582;DHT22;24349;53.720;10.014;2022-07-05T07:00:30;16.80;99.90
38582;DHT22;24349;53.720;10.014;2022-07-05T07:02:57;16.90;99.90
38582;DHT22;24349;53.720;10.014;2022-07-05T07:05:23;17.00;99.90
38582;DHT22;24349;53.720;10.014;2022-07-05T07:07:49;17.10;99.90
38582;DHT22;24349;53.720;10.014;2022-07-05T07:10:41;17.00;99.90
38582;DHT22;24349;53.720;10.014;2022-07-05T07:13:07;16.90;99.90
38582;DHT22;24349;53.720;10.014;2022-07-05T07:15:33;16.90;99.90
38582;DHT22;24349;53.720;10.014;2022-07-05T07:17:59;17.10;99.90
38582;DHT22;24349;53.720;10.014;2022-07-05T07:20:25;17.50;99.90
38582;DHT22;24349;53.720;10.014;2022-07-05T07:22:51;18.30;99.90
38582;DHT22;24349;53.720;10.014;2022-07-05T07:25:17;18.60;99.90
38582;DHT22;24349;53.720;10.014;2022-07-05T07:27:46;19.10;99.90
38582;DHT22;24349;53.720;10.014;2022-07-05T07:30:13;18.60;99.90
38582;DHT22;24349;53.720;10.014;2022-07-05T07:32:40;18.50;99.90
38582;DHT22;24349;53.720;10.014;2022-07-05T07:35:07;18.30;99.90
38582;DHT22;24349;53.720;10.014;2022-07-05T07:37:32;18.40;99.90
38582;DHT22;24349;53.720;10.014;2022-07-05T07:39:58;18.20;99.90
38582;DHT22;24349;53.720;10.014;2022-07-05T07:42:24;18.20;99.90
38582;DHT22;24349;53.720;10.014;2022-07-05T07:44:50;18.30;99.90
38582;DHT22;24349;53.720;10.014;2022-07-05T07:47:15;19.00;99.90
38582;DHT22;24349;53.720;10.014;2022-07-05T07:49:41;18.90;99.90
38582;DHT22;24349;53.720;10.014;2022-07-05T07:52:07;19.60;99.90
38582;DHT22;24349;53.720;10.014;2022-07-05T07:54:33;19.40;99.90
38582;DHT22;24349;53.720;10.014;2022-07-05T07:56:59;19.60;99.90
38582;DHT22;24349;53.720;10.014;2022-07-05T07:59:30;19.90;99.90
38582;DHT22;24349;53.720;10.014;2022-07-05T08:01:56;20.90;99.90
38582;DHT22;24349;53.720;10.014;2022-07-05T08:04:22;21.70;99.90
38582;DHT22;24349;53.720;10.014;2022-07-05T08:06:47;21.70;99.90
38582;DHT22;24349;53.720;10.014;2022-07-05T08:09:13;21.20;99.90
38582;DHT22;24349;53.720;10.014;2022-07-05T08:11:39;20.50;99.90
38582;DHT22;24349;53.720;10.014;2022-07-05T08:14:05;20.30;99.90
38582;DHT22;24349;53.720;10.014;2022-07-05T08:16:31;20.30;99.90
38582;DHT22;24349;53.720;10.014;2022-07-05T08:18:57;20.30;99.90
38582;DHT22;24349;53.720;10.014;2022-07-05T08:21:40;20.10;99.90
38582;DHT22;24349;53.720;10.014;2022-07-05T08:24:10;20.10;99.90
38582;DHT22;24349;53.720;10.014;2022-07-05T08:26:37;20.20;99.90
38582;DHT22;24349;53.720;10.014;2022-07-05T08:29:08;19.90;99.90
38582;DHT22;24349;53.720;10.014;2022-07-05T08:31:36;20.00;99.90
38582;DHT22;24349;53.720;10.014;2022-07-05T08:34:02;20.20;99.90
38582;DHT22;24349;53.720;10.014;2022-07-05T08:36:28;20.20;99.90
38582;DHT22;24349;53.720;10.014;2022-07-05T08:38:54;20.20;99.90
38582;DHT22;24349;53.720;10.014;2022-07-05T08:41:21;20.10;99.90
38582;DHT22;24349;53.720;10.014;2022-07-05T08:43:49;20.60;99.90
38582;DHT22;24349;53.720;10.014;2022-07-05T08:46:16;21.30;99.90
38582;DHT22;24349;53.720;10.014;2022-07-05T08:48:44;21.80;99.90
38582;DHT22;24349;53.720;10.014;2022-07-05T08:51:15;21.40;99.90
38582;DHT22;24349;53.720;10.014;2022-07-05T08:53:47;21.30;99.90
38582;DHT22;24349;53.720;10.014;2022-07-05T08:56:14;21.30;99.90
38582;DHT22;24349;53.720;10.014;2022-07-05T08:58:40;21.00;99.90
38582;DHT22;24349;53.720;10.014;2022-07-05T09:01:07;20.70;99.90
38582;DHT22;24349;53.720;10.014;2022-07-05T09:03:44;20.20;99.90
38582;DHT22;24349;53.720;10.014;2022-07-05T09:06:13;20.30;99.90
38582;DHT22;24349;53.720;10.014;2022-07-05T09:08:40;20.30;99.90
38582;DHT22;24349;53.720;10.014;2022-07-05T09:11:08;20.20;99.90
38582;DHT22;24349;53.720;10.014;2022-07-05T09:13:36;20.20;99.90
38582;DHT22;24349;53.720;10.014;2022-07-05T09:16:02;20.20;99.90
38582;DHT22;24349;53.720;10.014;2022-07-05T09:18:48;20.00;99.90
38582;DHT22;24349;53.720;10.014;2022-07-05T09:21:35;19.90;99.90
38582;DHT22;24349;53.720;10.014;2022-07-05T09:24:03;19.80;99.90
38582;DHT22;24349;53.720;10.014;2022-07-05T09:26:48;19.60;99.90
38582;DHT22;24349;53.720;10.014;2022-07-05T09:29:20;20.00;99.90
38582;DHT22;24349;53.720;10.014;2022-07-05T09:31:50;20.50;99.90
38582;DHT22;24349;53.720;10.014;2022-07-05T09:34:17;20.90;99.90
38582;DHT22;24349;53.720;10.014;2022-07-05T09:37:02;21.60;99.90
38582;DHT22;24349;53.720;10.014;2022-07-05T09:42:25;22.30;99.90
38582;DHT22;24349;53.720;10.014;2022-07-05T09:44:55;21.90;99.90
38582;DHT22;24349;53.720;10.014;2022-07-05T09:47:27;22.20;99.90
38582;DHT22;24349;53.720;10.014;2022-07-05T09:49:59;22.00;99.90
38582;DHT22;24349;53.720;10.014;2022-07-05T09:52:40;21.10;99.90
38582;DHT22;24349;53.720;10.014;2022-07-05T09:55:15;21.00;99.90
38582;DHT22;24349;53.720;10.014;2022-07-05T09:57:42;21.80;99.90
38582;DHT22;24349;53.720;10.014;2022-07-05T10:02:41;21.50;99.90
38582;DHT22;24349;53.720;10.014;2022-07-05T10:05:17;21.70;99.90
38582;DHT22;24349;53.720;10.014;2022-07-05T10:07:48;21.60;99.90
38582;DHT22;24349;53.720;10.014;2022-07-05T10:10:16;21.90;99.90
38582;DHT22;24349;53.720;10.014;2022-07-05T10:12:43;21.90;99.90
38582;DHT22;24349;53.720;10.014;2022-07-05T10:15:11;22.20;99.90
38582;DHT22;24349;53.720;10.014;2022-07-05T10:17:41;21.70;99.90
38582;DHT22;24349;53.720;10.014;2022-07-05T10:23:06;21.50;99.90
38582;DHT22;24349;53.720;10.014;2022-07-05T10:25:35;21.90;99.90
38582;DHT22;24349;53.720;10.014;2022-07-05T10:28:03;22.20;99.90
38582;DHT22;24349;53.720;10.014;2022-07-05T10:30:29;22.00;99.90
38582;DHT22;24349;53.720;10.014;2022-07-05T10:32:56;21.70;99.90
38582;DHT22;24349;53.720;10.014;2022-07-05T10:35:22;21.60;99.90
38582;DHT22;24349;53.720;10.014;2022-07-05T10:37:49;21.80;99.90
38582;DHT22;24349;53.720;10.014;2022-07-05T10:40:15;21.70;99.90
38582;DHT22;24349;53.720;10.014;2022-07-05T10:42:51;21.80;99.90
38582;DHT22;24349;53.720;10.014;2022-07-05T10:53:23;21.60;99.90
38582;DHT22;24349;53.720;10.014;2022-07-05T10:55:52;21.70;99.90
38582;DHT22;24349;53.720;10.014;2022-07-05T11:00:46;22.90;99.90
38582;DHT22;24349;53.720;10.014;2022-07-05T11:06:31;23.80;98.90
38582;DHT22;24349;53.720;10.014;2022-07-05T11:11:41;23.40;97.50
38582;DHT22;24349;53.720;10.014;2022-07-05T11:16:45;23.60;97.90
38582;DHT22;24349;53.720;10.014;2022-07-05T11:19:16;23.40;98.00
38582;DHT22;24349;53.720;10.014;2022-07-05T11:22:06;23.90;99.90
38582;DHT22;24349;53.720;10.014;2022-07-05T11:24:37;24.20;97.60
38582;DHT22;24349;53.720;10.014;2022-07-05T11:27:09;23.60;98.00
38582;DHT22;24349;53.720;10.014;2022-07-05T11:29:42;23.90;99.50
38582;DHT22;24349;53.720;10.014;2022-07-05T11:32:10;24.40;97.90
38582;DHT22;24349;53.720;10.014;2022-07-05T11:34:37;24.20;97.80
38582;DHT22;24349;53.720;10.014;2022-07-05T11:37:18;24.10;98.20
38582;DHT22;24349;53.720;10.014;2022-07-05T11:39:46;23.30;97.80
38582;DHT22;24349;53.720;10.014;2022-07-05T11:42:21;23.40;99.30
38582;DHT22;24349;53.720;10.014;2022-07-05T11:44:50;23.80;97.10
38582;DHT22;24349;53.720;10.014;2022-07-05T11:47:16;23.50;97.00
38582;DHT22;24349;53.720;10.014;2022-07-05T11:49:53;23.60;97.30
38582;DHT22;24349;53.720;10.014;2022-07-05T11:52:28;23.20;96.20
38582;DHT22;24349;53.720;10.014;2022-07-05T11:54:54;23.70;96.70
38582;DHT22;24349;53.720;10.014;2022-07-05T11:57:20;23.80;96.00
38582;DHT22;24349;53.720;10.014;2022-07-05T11:59:46;23.70;95.70
38582;DHT22;24349;53.720;10.014;2022-07-05T12:02:12;23.80;95.60
38582;DHT22;24349;53.720;10.014;2022-07-05T12:04:38;23.80;95.30
38582;DHT22;24349;53.720;10.014;2022-07-05T12:07:04;23.90;95.50
38582;DHT22;24349;53.720;10.014;2022-07-05T12:09:31;23.70;96.30
38582;DHT22;24349;53.720;10.014;2022-07-05T12:12:23;23.20;95.60
38582;DHT22;24349;53.720;10.014;2022-07-05T12:17:39;22.90;97.60
38582;DHT22;24349;53.720;10.014;2022-07-05T12:20:06;23.30;97.60
38582;DHT22;24349;53.720;10.014;2022-07-05T12:22:43;24.00;95.80
38582;DHT22;24349;53.720;10.014;2022-07-05T12:25:15;24.30;96.40
38582;DHT22;24349;53.720;10.014;2022-07-05T12:27:42;24.50;96.30
38582;DHT22;24349;53.720;10.014;2022-07-05T12:30:10;23.70;96.30
38582;DHT22;24349;53.720;10.014;2022-07-05T12:32:59;23.70;97.00
38582;DHT22;24349;53.720;10.014;2022-07-05T12:35:40;24.00;97.00
38582;DHT22;24349;53.720;10.014;2022-07-05T12:38:09;24.10;96.70
38582;DHT22;24349;53.720;10.014;2022-07-05T12:40:36;24.20;97.20
38582;DHT22;24349;53.720;10.014;2022-07-05T12:43:14;24.50;97.50
38582;DHT22;24349;53.720;10.014;2022-07-05T12:45:43;24.60;97.30
38582;DHT22;24349;53.720;10.014;2022-07-05T12:48:10;24.40;96.20
38582;DHT22;24349;53.720;10.014;2022-07-05T12:50:48;24.70;98.30
38582;DHT22;24349;53.720;10.014;2022-07-05T12:53:14;24.10;96.60
38582;DHT22;24349;53.720;10.014;2022-07-05T12:56:09;23.70;97.30
38582;DHT22;24349;53.720;10.014;2022-07-05T12:58:56;23.30;98.00
38582;DHT22;24349;53.720;10.014;2022-07-05T13:01:27;23.30;98.50
38582;DHT22;24349;53.720;10.014;2022-07-05T13:04:06;23.30;98.70
38582;DHT22;24349;53.720;10.014;2022-07-05T13:06:57;23.60;99.40
38582;DHT22;24349;53.720;10.014;2022-07-05T13:12:11;24.70;98.20
38582;DHT22;24349;53.720;10.014;2022-07-05T13:14:39;24.20;97.70
38582;DHT22;24349;53.720;10.014;2022-07-05T13:17:07;23.80;97.80
38582;DHT22;24349;53.720;10.014;2022-07-05T13:19:33;23.20;98.60
38582;DHT22;24349;53.720;10.014;2022-07-05T13:21:59;22.60;98.80
38582;DHT22;24349;53.720;10.014;2022-07-05T13:24:25;22.40;99.50
38582;DHT22;24349;53.720;10.014;2022-07-05T13:26:51;22.20;99.90
38582;DHT22;24349;53.720;10.014;2022-07-05T13:29:16;22.20;99.90
38582;DHT22;24349;53.720;10.014;2022-07-05T13:31:42;22.00;99.90
38582;DHT22;24349;53.720;10.014;2022-07-05T13:34:08;22.20;99.90
38582;DHT22;24349;53.720;10.014;2022-07-05T13:36:34;22.00;99.90
38582;DHT22;24349;53.720;10.014;2022-07-05T13:39:00;21.90;99.90
38582;DHT22;24349;53.720;10.014;2022-07-05T13:41:25;21.60;99.90
38582;DHT22;24349;53.720;10.014;2022-07-05T13:43:52;21.50;99.90
38582;DHT22;24349;53.720;10.014;2022-07-05T13:46:17;21.40;99.90
38582;DHT22;24349;53.720;10.014;2022-07-05T13:48:43;21.40;99.90
38582;DHT22;24349;53.720;10.014;2022-07-05T13:51:09;21.10;99.90
38582;DHT22;24349;53.720;10.014;2022-07-05T13:53:35;21.10;99.90
38582;DHT22;24349;53.720;10.014;2022-07-05T13:56:05;21.10;99.90
38582;DHT22;24349;53.720;10.014;2022-07-05T13:58:32;21.00;99.90
38582;DHT22;24349;53.720;10.014;2022-07-05T14:00:58;20.80;99.90
38582;DHT22;24349;53.720;10.014;2022-07-05T14:03:24;20.70;99.90
38582;DHT22;24349;53.720;10.014;2022-07-05T14:05:50;20.70;99.90
38582;DHT22;24349;53.720;10.014;2022-07-05T14:08:16;20.70;99.90
38582;DHT22;24349;53.720;10.014;2022-07-05T14:10:48;21.10;99.90
38582;DHT22;24349;53.720;10.014;2022-07-05T14:13:16;21.50;99.90
38582;DHT22;24349;53.720;10.014;2022-07-05T14:15:42;21.30;99.90
38582;DHT22;24349;53.720;10.014;2022-07-05T14:18:07;21.20;99.90
38582;DHT22;24349;53.720;10.014;2022-07-05T14:20:33;21.10;99.90
38582;DHT22;24349;53.720;10.014;2022-07-05T14:22:59;21.20;99.90
38582;DHT22;24349;53.720;10.014;2022-07-05T14:25:24;21.30;99.90
38582;DHT22;24349;53.720;10.014;2022-07-05T14:27:50;21.70;99.90
38582;DHT22;24349;53.720;10.014;2022-07-05T14:30:16;21.90;99.90
38582;DHT22;24349;53.720;10.014;2022-07-05T14:32:41;21.80;99.90
38582;DHT22;24349;53.720;10.014;2022-07-05T14:35:07;21.80;99.90
38582;DHT22;24349;53.720;10.014;2022-07-05T14:37:33;21.70;99.90
38582;DHT22;24349;53.720;10.014;2022-07-05T14:39:58;21.70;99.90
38582;DHT22;24349;53.720;10.014;2022-07-05T14:42:25;21.80;99.90
38582;DHT22;24349;53.720;10.014;2022-07-05T14:44:50;21.80;99.90
38582;DHT22;24349;53.720;10.014;2022-07-05T14:47:16;21.40;99.90
38582;DHT22;24349;53.720;10.014;2022-07-05T14:49:42;21.30;99.90
38582;DHT22;24349;53.720;10.014;2022-07-05T14:52:07;21.10;99.90
38582;DHT22;24349;53.720;10.014;2022-07-05T14:54:33;20.90;99.90
38582;DHT22;24349;53.720;10.014;2022-07-05T14:56:59;20.80;99.90
38582;DHT22;24349;53.720;10.014;2022-07-05T14:59:24;20.60;99.90
38582;DHT22;24349;53.720;10.014;2022-07-05T15:01:50;20.50;99.90
38582;DHT22;24349;53.720;10.014;2022-07-05T15:04:16;20.40;99.90
38582;DHT22;24349;53.720;10.014;2022-07-05T15:06:41;20.30;99.90
38582;DHT22;24349;53.720;10.014;2022-07-05T15:09:07;20.30;99.90
38582;DHT22;24349;53.720;10.014;2022-07-05T15:11:33;20.00;99.90
38582;DHT22;24349;53.720;10.014;2022-07-05T15:13:58;20.40;99.90
38582;DHT22;24349;53.720;10.014;2022-07-05T15:16:27;20.80;99.90
38582;DHT22;24349;53.720;10.014;2022-07-05T15:18:53;21.50;99.90
38582;DHT22;24349;53.720;10.014;2022-07-05T15:21:19;21.70;99.90
38582;DHT22;24349;53.720;10.014;2022-07-05T15:23:44;21.50;99.90
38582;DHT22;24349;53.720;10.014;2022-07-05T15:26:10;21.80;99.90
38582;DHT22;24349;53.720;10.014;2022-07-05T15:28:36;21.80;99.90
38582;DHT22;24349;53.720;10.014;2022-07-05T15:31:01;22.00;99.90
38582;DHT22;24349;53.720;10.014;2022-07-05T15:33:27;22.30;99.90
38582;DHT22;24349;53.720;10.014;2022-07-05T15:35:58;22.30;99.90
38582;DHT22;24349;53.720;10.014;2022-07-05T15:38:25;22.40;99.90
38582;DHT22;24349;53.720;10.014;2022-07-05T15:40:52;22.10;99.90
38582;DHT22;24349;53.720;10.014;2022-07-05T15:43:18;21.80;99.90
38582;DHT22;24349;53.720;10.014;2022-07-05T15:45:45;21.30;99.90
38582;DHT22;24349;53.720;10.014;2022-07-05T15:48:11;21.20;99.90
38582;DHT22;24349;53.720;10.014;2022-07-05T15:50:37;21.20;99.90